sensor_id;sensor_type;location;lat;lon;timestamp;temperature;humidity
17994;DHT22;9122;48.406;9.984;2023-11-21T00:01:23;9.80;97.50
17994;DHT22;9122;48.406;9.984;2023-11-21T00:04:08;9.80;99.90
17994;DHT22;9122;48.406;9.984;2023-11-21T00:09:37;9.80;97.50
17994;DHT22;9122;48.406;9.984;2023-11-21T00:12:22;9.80;98.00
17994;DHT22;9122;48.406;9.984;2023-11-21T00:15:07;9.80;98.40
17994;DHT22;9122;48.406;9.984;2023-11-21T00:17:55;9.70;98.30
17994;DHT22;9122;48.406;9.984;2023-11-21T00:23:24;9.70;99.90
17994;DHT22;9122;48.406;9.984;2023-11-21T00:26:08;9.70;98.80
17994;DHT22;9122;48.406;9.984;2023-11-21T00:28:53;9.70;99.20
17994;DHT22;9122;48.406;9.984;2023-11-21T00:34:23;9.70;98.40
17994;DHT22;9122;48.406;9.984;2023-11-21T00:39:52;9.60;98.50
17994;DHT22;9122;48.406;9.984;2023-11-21T00:42:39;9.70;98.60
17994;DHT22;9122;48.406;9.984;2023-11-21T00:45:23;9.70;99.30
17994;DHT22;9122;48.406;9.984;2023-11-21T00:50:53;9.60;98.80
17994;DHT22;9122;48.406;9.984;2023-11-21T00:53:40;9.60;98.80
17994;DHT22;9122;48.406;9.984;2023-11-21T00:59:09;9.60;98.90
17994;DHT22;9122;48.406;9.984;2023-11-21T01:01:55;9.60;99.60
17994;DHT22;9122;48.406;9.984;2023-11-21T01:04:39;9.70;99.60
17994;DHT22;9122;48.406;9.984;2023-11-21T01:07:23;9.60;99.50
17994;DHT22;9122;48.406;9.984;2023-11-21T01:10:08;9.70;99.60
17994;DHT22;9122;48.406;9.984;2023-11-21T01:15:38;9.60;99.10
17994;DHT22;9122;48.406;9.984;2023-11-21T01:18:23;9.50;99.80
17994;DHT22;9122;48.406;9.984;2023-11-21T01:21:10;9.70;99.90
17994;DHT22;9122;48.406;9.984;2023-11-21T01:23:54;9.60;99.90
17994;DHT22;9122;48.406;9.984;2023-11-21T01:34:53;9.50;99.40
17994;DHT22;9122;48.406;9.984;2023-11-21T01:37:38;10.70;99.90
17994;DHT22;9122;48.406;9.984;2023-11-21T01:40:23;9.60;99.90
17994;DHT22;9122;48.406;9.984;2023-11-21T01:45:57;9.50;99.30
17994;DHT22;9122;48.406;9.984;2023-11-21T01:48:41;9.50;99.80
17994;DHT22;9122;48.406;9.984;2023-11-21T01:51:26;9.40;99.80
17994;DHT22;9122;48.406;9.984;2023-11-21T01:54:11;9.60;99.90
17994;DHT22;9122;48.406;9.984;2023-11-21T01:56:55;9.40;99.90
17994;DHT22;9122;48.406;9.984;2023-11-21T01:59:41;9.50;99.30
17994;DHT22;9122;48.406;9.984;2023-11-21T02:02:27;9.40;99.50
17994;DHT22;9122;48.406;9.984;2023-11-21T02:05:11;10.10;99.80
17994;DHT22;9122;48.406;9.984;2023-11-21T02:07:56;9.50;99.70
17994;DHT22;9122;48.406;9.984;2023-11-21T02:10:40;9.50;99.90
17994;DHT22;9122;48.406;9.984;2023-11-21T02:16:10;9.50;99.90
17994;DHT22;9122;48.406;9.984;2023-11-21T02:18:56;9.50;99.80
17994;DHT22;9122;48.406;9.984;2023-11-21T02:21:42;9.60;99.70
17994;DHT22;9122;48.406;9.984;2023-11-21T02:24:29;9.40;99.80
17994;DHT22;9122;48.406;9.984;2023-11-21T02:27:13;9.40;99.30
17994;DHT22;9122;48.406;9.984;2023-11-21T02:30:01;9.40;99.90
17994;DHT22;9122;48.406;9.984;2023-11-21T02:32:51;9.40;99.90
17994;DHT22;9122;48.406;9.984;2023-11-21T02:35:39;9.90;99.90
17994;DHT22;9122;48.406;9.984;2023-11-21T02:38:23;9.30;99.90
17994;DHT22;9122;48.406;9.984;2023-11-21T02:43:52;9.40;99.30
17994;DHT22;9122;48.406;9.984;2023-11-21T02:49:23;9.40;99.40
17994;DHT22;9122;48.406;9.984;2023-11-21T02:52:08;9.40;99.90
17994;DHT22;9122;48.406;9.984;2023-11-21T02:54:52;9.30;99.90
17994;DHT22;9122;48.406;9.984;2023-11-21T02:57:37;9.30;99.90
17994;DHT22;9122;48.406;9.984;2023-11-21T03:00:21;9.30;99.90
17994;DHT22;9122;48.406;9.984;2023-11-21T03:03:08;9.30;99.90
17994;DHT22;9122;48.406;9.984;2023-11-21T03:05:53;9.30;99.90
17994;DHT22;9122;48.406;9.984;2023-11-21T03:08:37;9.10;99.90
17994;DHT22;9122;48.406;9.984;2023-11-21T03:11:21;9.20;99.90
17994;DHT22;9122;48.406;9.984;2023-11-21T03:16:50;9.20;99.70
17994;DHT22;9122;48.406;9.984;2023-11-21T03:19:35;9.00;99.90
17994;DHT22;9122;48.406;9.984;2023-11-21T03:22:20;9.20;99.90
17994;DHT22;9122;48.406;9.984;2023-11-21T03:25:05;9.70;99.90
17994;DHT22;9122;48.406;9.984;2023-11-21T03:27:49;9.20;99.90
17994;DHT22;9122;48.406;9.984;2023-11-21T03:30:33;9.20;99.90
17994;DHT22;9122;48.406;9.984;2023-11-21T03:36:03;9.20;99.90
17994;DHT22;9122;48.406;9.984;2023-11-21T03:38:48;9.10;99.90
17994;DHT22;9122;48.406;9.984;2023-11-21T03:41:33;9.20;99.90
17994;DHT22;9122;48.406;9.984;2023-11-21T03:47:02;9.10;99.90
17994;DHT22;9122;48.406;9.984;2023-11-21T03:49:47;9.10;99.90
17994;DHT22;9122;48.406;9.984;2023-11-21T03:55:16;9.10;99.90
17994;DHT22;9122;48.406;9.984;2023-11-21T03:58:01;9.10;99.90
17994;DHT22;9122;48.406;9.984;2023-11-21T04:00:47;9.20;99.90
17994;DHT22;9122;48.406;9.984;2023-11-21T04:03:33;9.60;99.90
17994;DHT22;9122;48.406;9.984;2023-11-21T04:06:17;9.00;99.90
17994;DHT22;9122;48.406;9.984;2023-11-21T04:09:02;9.10;99.90
17994;DHT22;9122;48.406;9.984;2023-11-21T04:11:48;9.10;99.90
17994;DHT22;9122;48.406;9.984;2023-11-21T04:14:32;9.10;99.90
17994;DHT22;9122;48.406;9.984;2023-11-21T04:17:19;9.00;99.90
17994;DHT22;9122;48.406;9.984;2023-11-21T04:20:05;9.10;99.90
17994;DHT22;9122;48.406;9.984;2023-11-21T04:25:38;9.10;99.90
17994;DHT22;9122;48.406;9.984;2023-11-21T04:28:23;9.10;99.90
17994;DHT22;9122;48.406;9.984;2023-11-21T04:31:08;9.60;99.90
17994;DHT22;9122;48.406;9.984;2023-11-21T04:33:53;9.10;99.90
17994;DHT22;9122;48.406;9.984;2023-11-21T04:36:39;9.10;99.90
17994;DHT22;9122;48.406;9.984;2023-11-21T04:39:24;9.10;99.90
17994;DHT22;9122;48.406;9.984;2023-11-21T04:42:08;9.20;99.90
17994;DHT22;9122;48.406;9.984;2023-11-21T04:44:52;9.10;99.90
17994;DHT22;9122;48.406;9.984;2023-11-21T04:47:37;9.20;99.90
17994;DHT22;9122;48.406;9.984;2023-11-21T04:50:22;9.10;99.90
17994;DHT22;9122;48.406;9.984;2023-11-21T04:53:06;9.10;99.90
17994;DHT22;9122;48.406;9.984;2023-11-21T04:55:51;9.10;99.90
17994;DHT22;9122;48.406;9.984;2023-11-21T05:04:05;9.10;99.90
17994;DHT22;9122;48.406;9.984;2023-11-21T05:06:50;9.10;99.90
17994;DHT22;9122;48.406;9.984;2023-11-21T05:12:19;9.10;99.90
17994;DHT22;9122;48.406;9.984;2023-11-21T05:15:05;9.10;99.90
17994;DHT22;9122;48.406;9.984;2023-11-21T05:17:55;9.10;99.90
17994;DHT22;9122;48.406;9.984;2023-11-21T05:20:44;9.20;99.90
17994;DHT22;9122;48.406;9.984;2023-11-21T06:10:25;9.00;99.90
17994;DHT22;9122;48.406;9.984;2023-11-21T06:18:41;9.00;99.90
17994;DHT22;9122;48.406;9.984;2023-11-21T06:35:16;9.00;99.90
17994;DHT22;9122;48.406;9.984;2023-11-21T07:05:39;9.00;99.90
17994;DHT22;9122;48.406;9.984;2023-11-21T07:08:24;9.00;99.90
17994;DHT22;9122;48.406;9.984;2023-11-21T07:11:08;8.90;99.90
17994;DHT22;9122;48.406;9.984;2023-11-21T07:13:52;9.00;99.90
17994;DHT22;9122;48.406;9.984;2023-11-21T07:22:07;9.10;99.90
17994;DHT22;9122;48.406;9.984;2023-11-21T07:24:52;9.00;99.90
17994;DHT22;9122;48.406;9.984;2023-11-21T07:27:37;9.00;99.90
17994;DHT22;9122;48.406;9.984;2023-11-21T07:30:21;9.00;99.90
17994;DHT22;9122;48.406;9.984;2023-11-21T07:33:07;9.00;99.90
17994;DHT22;9122;48.406;9.984;2023-11-21T07:35:51;9.00;99.90
17994;DHT22;9122;48.406;9.984;2023-11-21T07:38:36;9.00;99.90
17994;DHT22;9122;48.406;9.984;2023-11-21T07:41:20;8.80;99.90
17994;DHT22;9122;48.406;9.984;2023-11-21T07:44:05;9.00;99.90
17994;DHT22;9122;48.406;9.984;2023-11-21T07:46:50;9.00;99.90
17994;DHT22;9122;48.406;9.984;2023-11-21T07:49:35;9.10;99.90
17994;DHT22;9122;48.406;9.984;2023-11-21T07:52:19;9.00;99.90
17994;DHT22;9122;48.406;9.984;2023-11-21T07:55:05;9.00;99.90
17994;DHT22;9122;48.406;9.984;2023-11-21T07:57:51;9.10;99.90
17994;DHT22;9122;48.406;9.984;2023-11-21T08:00:35;9.10;99.90
17994;DHT22;9122;48.406;9.984;2023-11-21T08:03:20;9.10;99.90
17994;DHT22;9122;48.406;9.984;2023-11-21T08:06:05;9.20;99.90
17994;DHT22;9122;48.406;9.984;2023-11-21T08:08:49;9.10;99.90
17994;DHT22;9122;48.406;9.984;2023-11-21T08:11:34;9.20;99.90
17994;DHT22;9122;48.406;9.984;2023-11-21T08:14:18;9.20;99.90
17994;DHT22;9122;48.406;9.984;2023-11-21T08:19:49;9.20;99.90
17994;DHT22;9122;48.406;9.984;2023-11-21T08:25:19;9.30;99.90
17994;DHT22;9122;48.406;9.984;2023-11-21T08:28:04;11.50;99.90
17994;DHT22;9122;48.406;9.984;2023-11-21T08:30:49;9.30;99.90
17994;DHT22;9122;48.406;9.984;2023-11-21T08:36:19;9.40;99.90
17994;DHT22;9122;48.406;9.984;2023-11-21T08:39:03;9.50;99.90
17994;DHT22;9122;48.406;9.984;2023-11-21T08:41:48;9.60;99.90
17994;DHT22;9122;48.406;9.984;2023-11-21T08:44:32;9.60;99.90
17994;DHT22;9122;48.406;9.984;2023-11-21T08:47:16;9.70;99.90
17994;DHT22;9122;48.406;9.984;2023-11-21T08:50:01;9.70;99.90
17994;DHT22;9122;48.406;9.984;2023-11-21T08:52:46;9.80;99.90
17994;DHT22;9122;48.406;9.984;2023-11-21T08:55:30;9.80;99.90
17994;DHT22;9122;48.406;9.984;2023-11-21T09:00:59;9.90;99.90
17994;DHT22;9122;48.406;9.984;2023-11-21T09:03:44;10.20;99.90
17994;DHT22;9122;48.406;9.984;2023-11-21T09:06:29;10.00;99.90
17994;DHT22;9122;48.406;9.984;2023-11-21T09:09:13;10.00;99.90
17994;DHT22;9122;48.406;9.984;2023-11-21T09:11:58;10.10;99.90
17994;DHT22;9122;48.406;9.984;2023-11-21T09:14:44;10.10;99.90
17994;DHT22;9122;48.406;9.984;2023-11-21T09:17:29;10.20;99.90
17994;DHT22;9122;48.406;9.984;2023-11-21T09:20:14;10.30;99.90
17994;DHT22;9122;48.406;9.984;2023-11-21T09:22:59;10.30;99.90
17994;DHT22;9122;48.406;9.984;2023-11-21T09:25:43;10.30;99.90
17994;DHT22;9122;48.406;9.984;2023-11-21T09:28:30;10.30;99.90
17994;DHT22;9122;48.406;9.984;2023-11-21T09:34:06;10.40;99.80
17994;DHT22;9122;48.406;9.984;2023-11-21T09:39:35;10.60;99.70
17994;DHT22;9122;48.406;9.984;2023-11-21T09:42:25;10.70;99.80
17994;DHT22;9122;48.406;9.984;2023-11-21T09:45:27;10.80;99.70
17994;DHT22;9122;48.406;9.984;2023-11-21T09:48:14;10.90;99.50
17994;DHT22;9122;48.406;9.984;2023-11-21T09:50:59;11.00;99.20
17994;DHT22;9122;48.406;9.984;2023-11-21T09:53:50;11.30;98.40
17994;DHT22;9122;48.406;9.984;2023-11-21T09:56:37;11.40;98.00
17994;DHT22;9122;48.406;9.984;2023-11-21T09:59:22;11.40;98.40
17994;DHT22;9122;48.406;9.984;2023-11-21T10:02:07;11.50;98.10
17994;DHT22;9122;48.406;9.984;2023-11-21T10:07:46;11.60;97.40
17994;DHT22;9122;48.406;9.984;2023-11-21T10:10:32;11.50;97.80
17994;DHT22;9122;48.406;9.984;2023-11-21T10:13:18;11.40;98.10
17994;DHT22;9122;48.406;9.984;2023-11-21T10:16:04;11.50;97.90
17994;DHT22;9122;48.406;9.984;2023-11-21T10:18:52;11.60;98.00
17994;DHT22;9122;48.406;9.984;2023-11-21T10:21:40;11.90;98.00
17994;DHT22;9122;48.406;9.984;2023-11-21T10:24:24;12.20;97.20
17994;DHT22;9122;48.406;9.984;2023-11-21T10:32:40;12.90;95.50
17994;DHT22;9122;48.406;9.984;2023-11-21T10:35:24;13.00;95.60
17994;DHT22;9122;48.406;9.984;2023-11-21T10:40:54;12.90;95.10
17994;DHT22;9122;48.406;9.984;2023-11-21T10:43:38;12.80;95.40
17994;DHT22;9122;48.406;9.984;2023-11-21T10:46:23;12.70;99.90
17994;DHT22;9122;48.406;9.984;2023-11-21T10:49:10;12.70;95.40
17994;DHT22;9122;48.406;9.984;2023-11-21T10:51:56;12.70;95.70
17994;DHT22;9122;48.406;9.984;2023-11-21T10:54:40;12.70;95.20
17994;DHT22;9122;48.406;9.984;2023-11-21T10:57:25;12.70;94.80
17994;DHT22;9122;48.406;9.984;2023-11-21T11:00:16;12.70;99.90
17994;DHT22;9122;48.406;9.984;2023-11-21T11:08:35;12.30;94.40
17994;DHT22;9122;48.406;9.984;2023-11-21T11:16:52;12.90;94.10
17994;DHT22;9122;48.406;9.984;2023-11-21T11:19:38;13.00;99.90
17994;DHT22;9122;48.406;9.984;2023-11-21T11:22:37;12.90;94.40
17994;DHT22;9122;48.406;9.984;2023-11-21T11:25:50;12.90;94.30
17994;DHT22;9122;48.406;9.984;2023-11-21T11:28:53;12.90;94.00
17994;DHT22;9122;48.406;9.984;2023-11-21T11:32:03;12.90;93.40
17994;DHT22;9122;48.406;9.984;2023-11-21T11:34:59;13.00;93.10
17994;DHT22;9122;48.406;9.984;2023-11-21T11:37:45;13.00;92.90
17994;DHT22;9122;48.406;9.984;2023-11-21T11:40:41;13.00;92.90
17994;DHT22;9122;48.406;9.984;2023-11-21T11:43:26;13.00;93.00
17994;DHT22;9122;48.406;9.984;2023-11-21T11:49:03;13.00;92.90
17994;DHT22;9122;48.406;9.984;2023-11-21T11:51:47;13.00;93.20
17994;DHT22;9122;48.406;9.984;2023-11-21T11:54:35;13.00;93.10
17994;DHT22;9122;48.406;9.984;2023-11-21T11:57:24;13.00;99.90
17994;DHT22;9122;48.406;9.984;2023-11-21T12:03:01;12.90;92.70
17994;DHT22;9122;48.406;9.984;2023-11-21T12:05:47;12.80;92.80
17994;DHT22;9122;48.406;9.984;2023-11-21T12:08:34;12.80;99.90
17994;DHT22;9122;48.406;9.984;2023-11-21T12:11:20;12.80;93.20
17994;DHT22;9122;48.406;9.984;2023-11-21T12:16:49;12.90;92.90
17994;DHT22;9122;48.406;9.984;2023-11-21T12:19:35;13.40;93.70
17994;DHT22;9122;48.406;9.984;2023-11-21T12:22:19;12.90;93.90
17994;DHT22;9122;48.406;9.984;2023-11-21T12:25:04;12.90;97.00
17994;DHT22;9122;48.406;9.984;2023-11-21T12:27:50;12.40;94.20
17994;DHT22;9122;48.406;9.984;2023-11-21T12:30:36;12.80;94.30
17994;DHT22;9122;48.406;9.984;2023-11-21T12:33:22;12.80;94.30
17994;DHT22;9122;48.406;9.984;2023-11-21T12:36:06;12.80;99.90
17994;DHT22;9122;48.406;9.984;2023-11-21T12:38:54;12.70;94.40
17994;DHT22;9122;48.406;9.984;2023-11-21T12:41:39;12.70;94.50
17994;DHT22;9122;48.406;9.984;2023-11-21T12:44:23;12.70;94.50
17994;DHT22;9122;48.406;9.984;2023-11-21T12:47:08;12.60;94.70
17994;DHT22;9122;48.406;9.984;2023-11-21T12:49:52;12.60;95.00
17994;DHT22;9122;48.406;9.984;2023-11-21T12:52:36;12.60;95.80
17994;DHT22;9122;48.406;9.984;2023-11-21T12:55:23;12.50;96.20
17994;DHT22;9122;48.406;9.984;2023-11-21T12:58:09;12.50;96.70
17994;DHT22;9122;48.406;9.984;2023-11-21T13:00:56;12.30;99.90
17994;DHT22;9122;48.406;9.984;2023-11-21T13:03:41;12.40;97.00
17994;DHT22;9122;48.406;9.984;2023-11-21T13:06:29;12.40;97.10
17994;DHT22;9122;48.406;9.984;2023-11-21T13:09:18;12.40;99.90
17994;DHT22;9122;48.406;9.984;2023-11-21T13:12:07;12.40;96.90
17994;DHT22;9122;48.406;9.984;2023-11-21T13:14:52;12.30;96.80
17994;DHT22;9122;48.406;9.984;2023-11-21T13:17:37;12.30;96.90
17994;DHT22;9122;48.406;9.984;2023-11-21T13:20:22;12.30;97.20
17994;DHT22;9122;48.406;9.984;2023-11-21T13:23:10;12.30;97.20
17994;DHT22;9122;48.406;9.984;2023-11-21T13:26:00;12.20;97.30
17994;DHT22;9122;48.406;9.984;2023-11-21T13:28:48;12.30;99.90
17994;DHT22;9122;48.406;9.984;2023-11-21T13:31:32;12.40;97.30
17994;DHT22;9122;48.406;9.984;2023-11-21T13:34:20;12.20;97.10
17994;DHT22;9122;48.406;9.984;2023-11-21T13:37:06;12.10;97.00
17994;DHT22;9122;48.406;9.984;2023-11-21T13:39:51;12.20;96.60
17994;DHT22;9122;48.406;9.984;2023-11-21T13:42:37;12.20;96.20
17994;DHT22;9122;48.406;9.984;2023-11-21T13:45:22;12.20;96.20
17994;DHT22;9122;48.406;9.984;2023-11-21T13:48:07;12.20;99.90
17994;DHT22;9122;48.406;9.984;2023-11-21T13:56:27;12.20;95.90
17994;DHT22;9122;48.406;9.984;2023-11-21T13:59:13;12.10;96.30
17994;DHT22;9122;48.406;9.984;2023-11-21T14:02:05;12.10;96.20
17994;DHT22;9122;48.406;9.984;2023-11-21T14:07:53;12.10;95.60
17994;DHT22;9122;48.406;9.984;2023-11-21T14:10:40;12.10;95.60
17994;DHT22;9122;48.406;9.984;2023-11-21T14:13:26;12.10;99.90
17994;DHT22;9122;48.406;9.984;2023-11-21T14:16:11;12.00;96.00
17994;DHT22;9122;48.406;9.984;2023-11-21T14:18:56;12.00;95.90
17994;DHT22;9122;48.406;9.984;2023-11-21T14:21:46;11.90;95.90
17994;DHT22;9122;48.406;9.984;2023-11-21T14:24:31;11.90;95.90
17994;DHT22;9122;48.406;9.984;2023-11-21T14:27:16;11.90;95.90
17994;DHT22;9122;48.406;9.984;2023-11-21T14:32:45;11.90;95.60
17994;DHT22;9122;48.406;9.984;2023-11-21T14:38:19;11.90;99.90
17994;DHT22;9122;48.406;9.984;2023-11-21T14:41:06;11.90;96.10
17994;DHT22;9122;48.406;9.984;2023-11-21T14:43:52;12.00;99.90
17994;DHT22;9122;48.406;9.984;2023-11-21T14:46:39;11.90;99.90
17994;DHT22;9122;48.406;9.984;2023-11-21T14:52:11;11.80;99.90
17994;DHT22;9122;48.406;9.984;2023-11-21T14:55:16;11.80;96.30
17994;DHT22;9122;48.406;9.984;2023-11-21T14:58:18;11.90;96.30
17994;DHT22;9122;48.406;9.984;2023-11-21T15:12:18;11.70;96.10
17994;DHT22;9122;48.406;9.984;2023-11-21T15:15:07;11.70;96.20
17994;DHT22;9122;48.406;9.984;2023-11-21T15:20:42;11.60;99.90
17994;DHT22;9122;48.406;9.984;2023-11-21T15:23:27;11.60;99.90
17994;DHT22;9122;48.406;9.984;2023-11-21T15:26:12;11.50;97.00
17994;DHT22;9122;48.406;9.984;2023-11-21T15:29:38;11.50;96.60
17994;DHT22;9122;48.406;9.984;2023-11-21T15:35:03;11.50;96.60
17994;DHT22;9122;48.406;9.984;2023-11-21T15:40:32;11.50;96.70
17994;DHT22;9122;48.406;9.984;2023-11-21T15:43:17;11.50;97.60
17994;DHT22;9122;48.406;9.984;2023-11-21T15:51:39;11.40;99.90
17994;DHT22;9122;48.406;9.984;2023-11-21T15:54:43;11.40;97.20
17994;DHT22;9122;48.406;9.984;2023-11-21T15:57:39;11.40;97.30
17994;DHT22;9122;48.406;9.984;2023-11-21T16:00:23;11.40;99.90
17994;DHT22;9122;48.406;9.984;2023-11-21T16:03:08;11.30;98.20
17994;DHT22;9122;48.406;9.984;2023-11-21T16:05:54;11.40;99.90
17994;DHT22;9122;48.406;9.984;2023-11-21T16:08:38;11.20;99.90
17994;DHT22;9122;48.406;9.984;2023-11-21T16:11:23;11.20;98.50
17994;DHT22;9122;48.406;9.984;2023-11-21T16:14:07;11.20;98.80
17994;DHT22;9122;48.406;9.984;2023-11-21T16:16:55;11.20;98.30
17994;DHT22;9122;48.406;9.984;2023-11-21T16:19:42;11.10;98.40
17994;DHT22;9122;48.406;9.984;2023-11-21T16:22:26;11.20;99.90
17994;DHT22;9122;48.406;9.984;2023-11-21T16:25:12;11.10;98.80
17994;DHT22;9122;48.406;9.984;2023-11-21T16:30:49;11.10;98.60
17994;DHT22;9122;48.406;9.984;2023-11-21T16:33:36;11.00;99.90
17994;DHT22;9122;48.406;9.984;2023-11-21T16:36:21;11.00;99.20
17994;DHT22;9122;48.406;9.984;2023-11-21T16:39:19;11.00;99.20
17994;DHT22;9122;48.406;9.984;2023-11-21T16:42:05;11.00;99.10
17994;DHT22;9122;48.406;9.984;2023-11-21T16:44:51;11.00;99.90
17994;DHT22;9122;48.406;9.984;2023-11-21T16:47:37;11.00;99.00
17994;DHT22;9122;48.406;9.984;2023-11-21T16:50:22;10.90;99.40
17994;DHT22;9122;48.406;9.984;2023-11-21T16:53:08;11.00;99.40
17994;DHT22;9122;48.406;9.984;2023-11-21T16:55:58;10.90;99.30
17994;DHT22;9122;48.406;9.984;2023-11-21T16:58:45;10.90;99.40
17994;DHT22;9122;48.406;9.984;2023-11-21T17:01:30;10.90;98.80
17994;DHT22;9122;48.406;9.984;2023-11-21T17:04:14;10.90;99.30
17994;DHT22;9122;48.406;9.984;2023-11-21T17:06:59;10.90;99.00
17994;DHT22;9122;48.406;9.984;2023-11-21T17:15:12;10.80;98.90
17994;DHT22;9122;48.406;9.984;2023-11-21T17:17:57;10.80;99.30
17994;DHT22;9122;48.406;9.984;2023-11-21T17:20:43;10.80;99.50
17994;DHT22;9122;48.406;9.984;2023-11-21T17:23:28;10.80;99.30
17994;DHT22;9122;48.406;9.984;2023-11-21T17:26:12;10.70;99.90
17994;DHT22;9122;48.406;9.984;2023-11-21T17:28:59;10.70;99.40
17994;DHT22;9122;48.406;9.984;2023-11-21T17:31:45;10.70;99.90
17994;DHT22;9122;48.406;9.984;2023-11-21T17:34:30;10.70;99.40
17994;DHT22;9122;48.406;9.984;2023-11-21T17:37:14;10.70;99.40
17994;DHT22;9122;48.406;9.984;2023-11-21T17:42:46;10.60;99.10
17994;DHT22;9122;48.406;9.984;2023-11-21T17:45:31;10.90;99.90
17994;DHT22;9122;48.406;9.984;2023-11-21T17:48:15;10.70;99.90
17994;DHT22;9122;48.406;9.984;2023-11-21T17:51:00;10.60;99.90
17994;DHT22;9122;48.406;9.984;2023-11-21T17:56:29;10.50;98.60
17994;DHT22;9122;48.406;9.984;2023-11-21T18:02:00;10.40;98.30
17994;DHT22;9122;48.406;9.984;2023-11-21T18:04:45;10.50;99.90
17994;DHT22;9122;48.406;9.984;2023-11-21T18:07:30;11.10;98.90
17994;DHT22;9122;48.406;9.984;2023-11-21T18:10:19;10.40;99.90
17994;DHT22;9122;48.406;9.984;2023-11-21T18:13:03;10.30;98.40
17994;DHT22;9122;48.406;9.984;2023-11-21T18:21:17;10.20;99.90
17994;DHT22;9122;48.406;9.984;2023-11-21T18:24:02;10.20;98.80
17994;DHT22;9122;48.406;9.984;2023-11-21T18:29:31;10.30;99.90
17994;DHT22;9122;48.406;9.984;2023-11-21T18:32:16;10.20;98.90
17994;DHT22;9122;48.406;9.984;2023-11-21T18:37:45;10.20;98.60
17994;DHT22;9122;48.406;9.984;2023-11-21T18:40:31;10.10;99.20
17994;DHT22;9122;48.406;9.984;2023-11-21T18:43:15;10.10;99.40
17994;DHT22;9122;48.406;9.984;2023-11-21T18:46:01;11.60;99.70
17994;DHT22;9122;48.406;9.984;2023-11-21T18:48:49;10.10;99.30
17994;DHT22;9122;48.406;9.984;2023-11-21T18:54:20;10.10;98.80
17994;DHT22;9122;48.406;9.984;2023-11-21T18:57:05;10.20;99.90
17994;DHT22;9122;48.406;9.984;2023-11-21T18:59:49;10.10;99.50
17994;DHT22;9122;48.406;9.984;2023-11-21T19:02:35;10.00;99.70
17994;DHT22;9122;48.406;9.984;2023-11-21T19:05:19;10.00;99.50
17994;DHT22;9122;48.406;9.984;2023-11-21T19:08:04;10.10;99.60
17994;DHT22;9122;48.406;9.984;2023-11-21T19:10:49;10.00;99.60
17994;DHT22;9122;48.406;9.984;2023-11-21T19:16:19;10.00;99.90
17994;DHT22;9122;48.406;9.984;2023-11-21T19:19:05;9.70;99.60
17994;DHT22;9122;48.406;9.984;2023-11-21T19:21:54;10.00;99.30
17994;DHT22;9122;48.406;9.984;2023-11-21T19:24:48;9.90;99.20
17994;DHT22;9122;48.406;9.984;2023-11-21T19:30:19;10.00;99.30
17994;DHT22;9122;48.406;9.984;2023-11-21T19:33:05;9.90;99.90
17994;DHT22;9122;48.406;9.984;2023-11-21T19:35:50;9.90;99.40
17994;DHT22;9122;48.406;9.984;2023-11-21T19:41:22;10.00;99.30
17994;DHT22;9122;48.406;9.984;2023-11-21T19:44:09;9.90;99.70
17994;DHT22;9122;48.406;9.984;2023-11-21T19:46:54;9.80;99.90
17994;DHT22;9122;48.406;9.984;2023-11-21T19:49:38;10.00;99.90
17994;DHT22;9122;48.406;9.984;2023-11-21T19:52:23;10.00;99.80
17994;DHT22;9122;48.406;9.984;2023-11-21T19:55:09;9.70;99.60
17994;DHT22;9122;48.406;9.984;2023-11-21T19:57:54;10.00;99.70
17994;DHT22;9122;48.406;9.984;2023-11-21T20:00:39;9.90;99.70
17994;DHT22;9122;48.406;9.984;2023-11-21T20:03:24;9.90;99.90
17994;DHT22;9122;48.406;9.984;2023-11-21T20:06:09;9.90;99.90
17994;DHT22;9122;48.406;9.984;2023-11-21T20:08:54;9.90;99.80
17994;DHT22;9122;48.406;9.984;2023-11-21T20:11:40;9.90;99.80
17994;DHT22;9122;48.406;9.984;2023-11-21T20:17:11;9.90;99.40
17994;DHT22;9122;48.406;9.984;2023-11-21T20:19:56;10.00;99.90
17994;DHT22;9122;48.406;9.984;2023-11-21T20:25:27;9.90;99.30
17994;DHT22;9122;48.406;9.984;2023-11-21T20:28:12;9.80;99.80
17994;DHT22;9122;48.406;9.984;2023-11-21T20:30:57;9.80;99.40
17994;DHT22;9122;48.406;9.984;2023-11-21T20:33:42;9.90;99.90
17994;DHT22;9122;48.406;9.984;2023-11-21T20:36:27;9.90;99.90
17994;DHT22;9122;48.406;9.984;2023-11-21T20:39:11;9.80;99.70
17994;DHT22;9122;48.406;9.984;2023-11-21T20:44:42;9.90;99.30
17994;DHT22;9122;48.406;9.984;2023-11-21T20:47:27;9.90;99.90
17994;DHT22;9122;48.406;9.984;2023-11-21T20:52:56;9.90;99.90
17994;DHT22;9122;48.406;9.984;2023-11-21T20:55:41;9.80;99.70
17994;DHT22;9122;48.406;9.984;2023-11-21T20:58:25;9.80;99.70
17994;DHT22;9122;48.406;9.984;2023-11-21T21:01:10;9.80;99.70
17994;DHT22;9122;48.406;9.984;2023-11-21T21:03:55;9.80;99.70
17994;DHT22;9122;48.406;9.984;2023-11-21T21:06:40;9.90;99.90
17994;DHT22;9122;48.406;9.984;2023-11-21T21:09:25;9.80;99.80
17994;DHT22;9122;48.406;9.984;2023-11-21T21:12:09;9.80;99.70
17994;DHT22;9122;48.406;9.984;2023-11-21T21:14:55;9.70;99.80
17994;DHT22;9122;48.406;9.984;2023-11-21T21:20:28;9.70;99.40
17994;DHT22;9122;48.406;9.984;2023-11-21T21:23:14;9.80;99.90
17994;DHT22;9122;48.406;9.984;2023-11-21T21:25:58;9.70;99.80
17994;DHT22;9122;48.406;9.984;2023-11-21T21:28:43;9.70;99.80
17994;DHT22;9122;48.406;9.984;2023-11-21T21:31:27;9.70;99.80
17994;DHT22;9122;48.406;9.984;2023-11-21T21:34:12;9.70;99.80
17994;DHT22;9122;48.406;9.984;2023-11-21T21:36:58;9.70;99.80
17994;DHT22;9122;48.406;9.984;2023-11-21T21:39:43;9.70;99.80
17994;DHT22;9122;48.406;9.984;2023-11-21T21:42:29;9.70;99.80
17994;DHT22;9122;48.406;9.984;2023-11-21T21:47:58;9.60;99.90
17994;DHT22;9122;48.406;9.984;2023-11-21T21:56:12;9.70;99.40
17994;DHT22;9122;48.406;9.984;2023-11-21T21:58:58;9.70;99.80
17994;DHT22;9122;48.406;9.984;2023-11-21T22:01:46;9.70;99.90
17994;DHT22;9122;48.406;9.984;2023-11-21T22:04:32;9.70;99.90
17994;DHT22;9122;48.406;9.984;2023-11-21T22:07:18;9.60;99.90
17994;DHT22;9122;48.406;9.984;2023-11-21T22:10:02;9.70;99.90
17994;DHT22;9122;48.406;9.984;2023-11-21T22:12:47;9.60;99.90
17994;DHT22;9122;48.406;9.984;2023-11-21T22:18:16;9.60;99.50
17994;DHT22;9122;48.406;9.984;2023-11-21T22:21:00;9.60;99.90
17994;DHT22;9122;48.406;9.984;2023-11-21T22:23:45;9.60;99.90
17994;DHT22;9122;48.406;9.984;2023-11-21T22:31:58;9.60;99.90
17994;DHT22;9122;48.406;9.984;2023-11-21T22:34:43;9.50;99.90
17994;DHT22;9122;48.406;9.984;2023-11-21T22:37:28;9.50;99.80
17994;DHT22;9122;48.406;9.984;2023-11-21T22:40:12;9.60;99.90
17994;DHT22;9122;48.406;9.984;2023-11-21T22:45:42;9.50;99.70
17994;DHT22;9122;48.406;9.984;2023-11-21T22:48:27;9.60;99.90
17994;DHT22;9122;48.406;9.984;2023-11-21T22:51:12;9.50;99.90
17994;DHT22;9122;48.406;9.984;2023-11-21T22:53:57;9.50;99.90
17994;DHT22;9122;48.406;9.984;2023-11-21T22:56:41;9.50;99.90
17994;DHT22;9122;48.406;9.984;2023-11-21T22:59:26;9.50;99.90
17994;DHT22;9122;48.406;9.984;2023-11-21T23:02:14;9.50;99.90
17994;DHT22;9122;48.406;9.984;2023-11-21T23:04:59;9.50;99.90
17994;DHT22;9122;48.406;9.984;2023-11-21T23:10:28;9.40;99.60
17994;DHT22;9122;48.406;9.984;2023-11-21T23:16:03;9.40;99.80
17994;DHT22;9122;48.406;9.984;2023-11-21T23:18:47;9.40;99.90
17994;DHT22;9122;48.406;9.984;2023-11-21T23:24:18;9.30;99.80